Time;durP1;ratioP1;P1;durP2;ratioP2;P2;SDS_P1;SDS_P2;PMS_P1;PMS_P2;Temp;Humidity;BMP_temperature;BMP_pressure;BME280_temperature;BME280_humidity;BME280_pressure;Samples;Min_cycle;Max_cycle;Signal;HPM_P1;HPM_P2
2022/04/22 00:01:35;;;;;;;7.07;1.50;;;18.80;99.90;;;;;;5079609;28;20825;-88
2022/04/22 00:04:03;;;;;;;9.00;1.48;;;18.80;99.90;;;;;;5086895;28;21014;-89
2022/04/22 00:06:30;;;;;;;6.50;1.50;;;18.70;99.90;;;;;;5073251;28;20406;-89
2022/04/22 00:08:57;;;;;;;6.03;1.40;;;18.70;99.90;;;;;;5067511;28;20385;-89
2022/04/22 00:11:30;;;;;;;7.03;1.50;;;18.80;99.90;;;;;;5068185;28;20370;-86
2022/04/22 00:14:02;;;;;;;6.18;1.50;;;18.80;99.90;;;;;;5080148;28;20493;-86
2022/04/22 00:16:33;;;;;;;7.17;1.50;;;18.90;99.90;;;;;;5082506;28;20370;-90
2022/04/22 00:19:01;;;;;;;11.30;1.80;;;19.00;99.90;;;;;;5067514;28;20431;-88
2022/04/22 00:21:28;;;;;;;8.97;1.63;;;18.90;99.90;;;;;;5074126;28;20368;-89
2022/04/22 00:23:55;;;;;;;7.78;1.65;;;19.00;99.90;;;;;;5086812;28;20898;-85
2022/04/22 00:26:23;;;;;;;10.35;1.75;;;19.00;99.90;;;;;;5086744;28;20451;-89
2022/04/22 00:28:50;;;;;;;8.10;1.73;;;19.10;99.90;;;;;;5086970;28;20390;-90
2022/04/22 00:31:17;;;;;;;8.23;1.60;;;19.20;99.90;;;;;;5086911;28;20380;-89
2022/04/22 00:33:43;;;;;;;11.27;1.70;;;19.40;99.80;;;;;;5086528;28;20401;-90
2022/04/22 00:36:10;;;;;;;6.03;1.63;;;19.40;99.20;;;;;;5089143;28;20376;-89
2022/04/22 00:38:38;;;;;;;7.37;1.57;;;19.30;99.90;;;;;;5090221;28;20467;-88
2022/04/22 00:41:05;;;;;;;6.97;1.70;;;19.30;99.90;;;;;;5090441;28;20436;-87
2022/04/22 00:43:46;;;;;;;6.97;1.60;;;19.50;99.90;;;;;;5069156;28;20399;-88
2022/04/22 00:50:00;;;;;;;8.25;1.92;;;19.60;99.10;;;;;;5090251;28;20703;-87
2022/04/22 00:52:28;;;;;;;7.72;1.70;;;19.60;99.60;;;;;;5071043;28;20389;-89
2022/04/22 00:54:55;;;;;;;6.85;1.70;;;19.60;99.90;;;;;;5071026;28;20385;-89
2022/04/22 00:57:22;;;;;;;9.73;1.80;;;19.70;99.60;;;;;;5069921;28;20377;-86
2022/04/22 00:59:49;;;;;;;8.95;1.67;;;19.90;99.50;;;;;;5070718;28;20484;-87
2022/04/22 01:02:16;;;;;;;7.85;1.80;;;20.10;99.30;;;;;;5070332;28;20375;-88
2022/04/22 01:10:13;;;;;;;11.65;1.70;;;20.60;98.80;;;;;;5069735;28;20876;-87
2022/04/22 01:12:40;;;;;;;12.13;1.90;;;21.00;98.10;;;;;;5064443;28;20446;-88
2022/04/22 01:15:08;;;;;;;10.88;1.92;;;20.90;98.30;;;;;;5080086;28;20870;-90
2022/04/22 01:17:35;;;;;;;7.90;1.60;;;21.00;97.70;;;;;;5069771;28;20389;-88
2022/04/22 01:20:02;;;;;;;9.10;1.60;;;21.20;97.20;;;;;;5081159;28;20376;-88
2022/04/22 01:22:29;;;;;;;8.18;1.60;;;21.40;96.90;;;;;;5051546;28;20380;-88
2022/04/22 01:25:03;;;;;;;7.38;1.80;;;21.60;96.30;;;;;;5069392;28;20386;-88
2022/04/22 01:27:31;;;;;;;6.75;1.70;;;21.80;96.10;;;;;;5051512;28;20417;-88
2022/04/22 01:30:08;;;;;;;8.80;1.67;;;21.90;95.80;;;;;;5070243;28;20389;-87
2022/04/22 01:32:35;;;;;;;6.00;1.70;;;22.00;95.40;;;;;;5051279;28;20390;-89
2022/04/22 01:35:03;;;;;;;9.35;1.80;;;22.20;94.60;;;;;;5083100;28;20412;-88
2022/04/22 01:37:32;;;;;;;9.10;1.90;;;22.30;93.30;;;;;;5070881;28;20423;-90
2022/04/22 01:39:59;;;;;;;11.23;2.00;;;22.20;93.70;;;;;;5055992;28;20518;-90
2022/04/22 01:42:26;;;;;;;8.73;1.80;;;22.20;93.40;;;;;;5069339;28;20366;-87
2022/04/22 01:44:53;;;;;;;8.97;1.80;;;22.20;94.10;;;;;;5051810;28;20390;-87
2022/04/22 01:47:20;;;;;;;8.95;1.73;;;22.00;94.70;;;;;;5069010;28;20455;-88
2022/04/22 01:49:47;;;;;;;7.72;1.65;;;22.00;95.50;;;;;;5071608;28;20386;-87
2022/04/22 01:52:14;;;;;;;8.00;1.70;;;22.00;94.60;;;;;;5090449;28;20401;-87
2022/04/22 01:54:41;;;;;;;8.50;1.80;;;22.10;94.40;;;;;;5073285;28;20397;-89
2022/04/22 01:57:08;;;;;;;9.23;1.52;;;22.30;93.60;;;;;;5068967;28;20380;-88
2022/04/22 01:59:35;;;;;;;6.30;1.60;;;22.70;92.70;;;;;;5074042;28;20400;-89
2022/04/22 02:02:02;;;;;;;7.78;1.63;;;22.80;92.50;;;;;;5076804;28;20375;-89
2022/04/22 02:04:29;;;;;;;7.05;1.80;;;22.90;92.20;;;;;;5068848;28;20389;-88
2022/04/22 02:06:56;;;;;;;11.75;1.85;;;23.00;92.00;;;;;;5068552;28;20899;-90
2022/04/22 02:09:23;;;;;;;6.17;1.70;;;23.00;91.00;;;;;;5068842;28;20387;-88
2022/04/22 02:11:50;;;;;;;6.40;1.53;;;22.80;91.40;;;;;;5086068;28;20388;-90
2022/04/22 02:14:16;;;;;;;7.05;1.60;;;22.40;92.10;;;;;;5082772;28;20406;-91
2022/04/22 02:16:43;;;;;;;5.32;1.40;;;21.90;93.60;;;;;;5066985;28;20900;-89
2022/04/22 02:19:10;;;;;;;6.65;1.60;;;21.50;95.80;;;;;;5068506;28;20386;-89
2022/04/22 02:21:37;;;;;;;7.65;1.40;;;21.00;96.30;;;;;;5068462;28;20366;-89
2022/04/22 02:24:05;;;;;;;6.43;1.45;;;20.80;97.50;;;;;;5068210;28;20397;-90
2022/04/22 02:28:31;;;;;;;5.82;1.40;;;20.70;97.80;;;;;;5068508;28;20378;-88
2022/04/22 02:29:19;;;;;;;8.55;1.50;;;20.70;98.10;;;;;;5068389;28;20382;-88
2022/04/22 02:31:47;;;;;;;8.15;1.80;;;20.80;98.50;;;;;;5049923;28;20874;-91
2022/04/22 02:34:14;;;;;;;7.28;1.30;;;20.80;98.40;;;;;;5067904;28;20414;-89
2022/04/22 02:36:42;;;;;;;7.55;1.50;;;20.90;98.00;;;;;;5068333;28;20385;-88
2022/04/22 02:39:09;;;;;;;7.38;1.50;;;20.90;97.70;;;;;;5049937;28;20532;-89
2022/04/22 02:47:06;;;;;;;6.47;1.40;;;21.00;97.30;;;;;;5068503;28;20360;-88
2022/04/22 02:49:33;;;;;;;3.78;1.20;;;20.80;97.90;;;;;;5068666;28;20386;-90
2022/04/22 02:52:01;;;;;;;7.88;1.45;;;20.70;98.30;;;;;;5068338;28;20378;-89
2022/04/22 02:54:33;;;;;;;7.10;1.67;;;20.60;98.60;;;;;;5068193;28;20418;-88
2022/04/22 02:57:01;;;;;;;4.73;1.30;;;20.60;99.10;;;;;;5049881;28;20378;-90
2022/04/22 02:59:29;;;;;;;5.63;1.37;;;20.60;99.20;;;;;;5067228;28;20946;-88
2022/04/22 03:02:00;;;;;;;5.90;1.30;;;20.50;99.50;;;;;;5067422;28;20377;-87
2022/04/22 03:04:27;;;;;;;6.47;1.48;;;20.30;99.90;;;;;;5067356;28;20375;-88
2022/04/22 03:06:56;;;;;;;6.63;1.60;;;20.10;99.90;;;;;;5066229;28;20400;-87
2022/04/22 03:09:24;;;;;;;6.15;1.35;;;20.00;99.90;;;;;;5067544;28;20391;-87
2022/04/22 03:11:51;;;;;;;7.10;1.60;;;20.00;99.90;;;;;;5067979;28;20432;-88
2022/04/22 03:14:18;;;;;;;9.20;1.75;;;20.00;99.90;;;;;;5069703;28;20463;-89
2022/04/22 03:16:45;;;;;;;9.10;1.65;;;19.80;99.90;;;;;;5054327;28;20383;-88
2022/04/22 03:19:12;;;;;;;7.10;1.40;;;19.70;99.90;;;;;;5051021;28;20386;-90
2022/04/22 03:21:39;;;;;;;5.95;1.52;;;19.70;99.90;;;;;;5069766;28;20362;-88
2022/04/22 03:24:07;;;;;;;8.23;1.70;;;19.80;99.90;;;;;;5069908;28;20527;-88
2022/04/22 03:26:34;;;;;;;8.95;1.90;;;19.80;99.90;;;;;;5051943;28;21232;-88
2022/04/22 03:29:00;;;;;;;9.75;2.10;;;19.70;99.90;;;;;;5049411;28;20394;-88
2022/04/22 03:31:27;;;;;;;5.70;1.57;;;19.70;99.90;;;;;;5049116;28;20418;-88
2022/04/22 03:33:54;;;;;;;7.50;1.70;;;19.70;99.90;;;;;;5066929;28;20936;-89
2022/04/22 03:36:21;;;;;;;7.38;1.52;;;19.70;99.90;;;;;;5067658;28;20402;-91
2022/04/22 03:38:48;;;;;;;5.50;1.40;;;19.80;99.90;;;;;;5067245;28;20408;-89
2022/04/22 03:41:15;;;;;;;6.32;1.45;;;19.80;99.90;;;;;;5067277;28;20409;-89
2022/04/22 03:43:42;;;;;;;5.75;1.40;;;19.90;99.90;;;;;;5048815;28;20711;-88
2022/04/22 03:46:10;;;;;;;6.80;1.35;;;19.90;99.90;;;;;;5066955;28;20680;-88
2022/04/22 03:48:37;;;;;;;8.15;1.45;;;19.90;99.90;;;;;;5048806;28;20431;-89
2022/04/22 03:51:04;;;;;;;6.07;1.20;;;20.00;99.90;;;;;;5066750;28;20397;-87
2022/04/22 03:53:34;;;;;;;7.72;1.52;;;19.90;99.90;;;;;;5066465;28;20456;-87
2022/04/22 03:58:49;;;;;;;8.52;1.40;;;19.90;99.90;;;;;;5066885;28;20617;-89
2022/04/22 04:01:16;;;;;;;7.00;1.60;;;20.00;99.90;;;;;;5066678;28;20775;-88
2022/04/22 04:03:43;;;;;;;5.78;1.35;;;20.00;99.90;;;;;;5048539;28;20422;-87
2022/04/22 04:06:10;;;;;;;6.18;1.48;;;19.90;99.90;;;;;;5066788;28;20370;-90
2022/04/22 04:08:37;;;;;;;7.45;1.40;;;20.00;99.90;;;;;;5066761;28;20457;-87
2022/04/22 04:16:34;;;;;;;17.10;1.90;;;19.90;99.90;;;;;;5066576;28;20439;-88
2022/04/22 04:24:32;;;;;;;5.93;1.30;;;19.80;99.90;;;;;;5066499;28;20503;-87
2022/04/22 04:26:59;;;;;;;4.85;1.20;;;19.70;99.90;;;;;;5066341;28;20444;-87
2022/04/22 04:29:26;;;;;;;4.50;1.38;;;19.50;99.90;;;;;;5066482;28;20378;-86
2022/04/22 04:31:54;;;;;;;5.90;1.20;;;19.40;99.90;;;;;;5065178;28;20402;-87
2022/04/22 04:34:21;;;;;;;6.07;1.30;;;19.50;99.90;;;;;;5066306;28;20402;-87
2022/04/22 04:36:47;;;;;;;5.13;1.25;;;19.40;99.90;;;;;;5048346;28;20374;-86
2022/04/22 04:39:14;;;;;;;4.65;1.27;;;19.30;99.90;;;;;;5066648;28;20425;-86
2022/04/22 04:41:41;;;;;;;4.13;1.10;;;19.20;99.90;;;;;;5048397;28;20394;-87
2022/04/22 04:44:08;;;;;;;3.80;1.10;;;19.00;99.90;;;;;;5069155;28;20378;-86
2022/04/22 04:46:35;;;;;;;6.18;1.23;;;18.80;99.90;;;;;;5067895;28;20423;-87
2022/04/22 04:49:02;;;;;;;4.22;1.30;;;18.60;99.90;;;;;;5066203;28;20404;-88
2022/04/22 04:51:29;;;;;;;5.20;1.30;;;18.50;99.90;;;;;;5066245;28;20382;-90
2022/04/22 04:53:56;;;;;;;6.35;1.40;;;18.30;99.90;;;;;;5066217;28;20398;-91
2022/04/22 04:56:23;;;;;;;4.20;1.30;;;18.10;99.90;;;;;;5067446;28;20735;-89
2022/04/22 04:58:50;;;;;;;6.68;1.35;;;17.90;99.90;;;;;;5066591;28;20435;-90
2022/04/22 05:01:17;;;;;;;7.90;1.75;;;17.90;99.90;;;;;;5066065;28;20378;-89
2022/04/22 05:03:44;;;;;;;7.20;1.60;;;17.90;99.90;;;;;;5048511;28;20704;-89
2022/04/22 05:06:12;;;;;;;5.90;1.50;;;17.90;99.90;;;;;;5066026;28;20874;-89
2022/04/22 05:08:39;;;;;;;5.88;1.90;;;17.90;99.90;;;;;;5066088;28;20427;-89
2022/04/22 05:11:06;;;;;;;7.38;1.70;;;18.00;99.90;;;;;;5047957;28;20386;-88
2022/04/22 05:13:33;;;;;;;6.90;1.60;;;18.00;99.90;;;;;;5066246;28;20951;-87
2022/04/22 05:16:00;;;;;;;6.03;1.50;;;17.90;99.90;;;;;;5048225;28;20761;-87
2022/04/22 05:18:27;;;;;;;5.88;1.45;;;17.80;99.90;;;;;;5066302;28;20373;-89
2022/04/22 05:20:54;;;;;;;4.28;1.42;;;17.70;99.90;;;;;;5066398;28;20375;-89
2022/04/22 05:23:21;;;;;;;6.45;1.45;;;17.70;99.90;;;;;;5069756;28;20378;-89
2022/04/22 05:25:49;;;;;;;5.63;1.50;;;17.70;99.90;;;;;;5051576;28;20874;-89
2022/04/22 05:28:16;;;;;;;5.57;1.40;;;17.70;99.90;;;;;;5070403;28;20386;-88
2022/04/22 05:33:28;;;;;;;7.95;1.80;;;17.70;99.90;;;;;;5071840;28;20905;-89
2022/04/22 05:35:54;;;;;;;4.50;1.50;;;17.60;99.90;;;;;;5069478;28;20392;-86
2022/04/22 05:38:24;;;;;;;9.33;1.80;;;17.50;99.90;;;;;;5070516;28;20787;-87
2022/04/22 05:40:52;;;;;;;5.25;1.10;;;17.50;99.90;;;;;;5070797;28;20421;-86
2022/04/22 05:43:19;;;;;;;5.28;1.10;;;17.40;99.90;;;;;;5078546;28;20473;-86
2022/04/22 05:45:46;;;;;;;4.60;1.10;;;17.30;99.90;;;;;;5089285;28;20470;-91
2022/04/22 05:48:13;;;;;;;4.13;1.10;;;17.20;99.90;;;;;;5089372;28;20488;-88
2022/04/22 05:50:40;;;;;;;5.80;1.20;;;17.20;99.90;;;;;;5089437;28;20380;-87
2022/04/22 05:53:07;;;;;;;4.07;1.10;;;17.20;99.90;;;;;;5086187;28;20476;-86
2022/04/22 05:55:34;;;;;;;4.28;1.00;;;17.10;99.90;;;;;;5070874;28;20387;-87
2022/04/22 05:58:02;;;;;;;4.83;1.03;;;17.10;99.90;;;;;;5088423;28;20455;-87
2022/04/22 06:00:31;;;;;;;3.80;1.00;;;17.20;99.90;;;;;;5072732;28;20832;-86
2022/04/22 06:02:59;;;;;;;5.22;1.33;;;17.20;99.90;;;;;;5050820;28;20378;-86
2022/04/22 06:05:26;;;;;;;3.53;1.20;;;17.20;99.90;;;;;;5068814;28;20393;-86
2022/04/22 06:10:40;;;;;;;4.40;1.30;;;17.20;99.90;;;;;;5068923;28;20373;-85
2022/04/22 06:13:08;;;;;;;5.10;1.38;;;17.20;99.90;;;;;;5067816;28;20410;-86
2022/04/22 06:15:35;;;;;;;6.30;1.58;;;17.30;99.90;;;;;;5085660;28;20398;-85
2022/04/22 06:18:02;;;;;;;4.83;1.20;;;17.40;99.90;;;;;;5102624;28;20886;-83
2022/04/22 06:20:30;;;;;;;4.73;1.10;;;17.40;99.90;;;;;;5078217;28;20405;-85
2022/04/22 06:22:57;;;;;;;5.13;1.40;;;17.50;99.90;;;;;;5074597;28;20461;-83
2022/04/22 06:25:24;;;;;;;4.50;1.10;;;17.60;99.90;;;;;;5070748;28;20382;-84
2022/04/22 06:27:51;;;;;;;4.15;0.93;;;17.40;99.90;;;;;;5068464;28;20462;-82
2022/04/22 06:30:23;;;;;;;7.35;1.20;;;17.50;99.90;;;;;;5071911;28;20381;-83
2022/04/22 06:32:54;;;;;;;4.28;1.00;;;17.60;99.90;;;;;;5087475;28;20443;-84
2022/04/22 06:35:22;;;;;;;6.32;1.10;;;17.60;99.90;;;;;;5074688;28;20400;-82
2022/04/22 06:37:53;;;;;;;5.43;1.10;;;17.60;99.90;;;;;;5070177;28;20382;-88
2022/04/22 06:45:53;;;;;;;4.13;1.05;;;17.70;99.90;;;;;;5074233;28;20509;-84
2022/04/22 06:48:38;;;;;;;6.72;1.40;;;17.70;99.90;;;;;;5083492;28;20386;-82
2022/04/22 06:51:08;;;;;;;4.27;1.30;;;17.60;99.90;;;;;;5069777;28;20378;-84
2022/04/22 06:53:36;;;;;;;6.72;1.30;;;17.60;99.90;;;;;;5067668;28;20410;-84
2022/04/22 06:56:06;;;;;;;6.50;1.35;;;17.60;99.90;;;;;;5082123;28;20392;-84
2022/04/22 06:58:37;;;;;;;3.80;1.25;;;17.60;99.90;;;;;;5080792;28;20384;-85
2022/04/22 07:01:05;;;;;;;3.40;1.20;;;17.60;99.90;;;;;;5067695;28;20825;-84
2022/04/22 07:03:32;;;;;;;3.78;1.20;;;17.70;99.90;;;;;;5068516;28;20853;-85
2022/04/22 07:05:59;;;;;;;5.90;1.30;;;17.70;99.90;;;;;;5080708;28;20752;-84
2022/04/22 07:08:26;;;;;;;4.70;1.10;;;17.70;99.90;;;;;;5067526;28;20387;-85
2022/04/22 07:10:53;;;;;;;4.50;1.00;;;17.70;99.90;;;;;;5075697;28;20455;-84
2022/04/22 07:13:21;;;;;;;4.38;1.25;;;17.70;99.90;;;;;;5087672;28;20399;-84
2022/04/22 07:15:52;;;;;;;7.07;1.35;;;17.70;99.90;;;;;;5086948;28;20748;-85
2022/04/22 07:18:19;;;;;;;5.13;1.10;;;17.70;99.90;;;;;;5087369;28;20463;-84
2022/04/22 07:20:46;;;;;;;6.80;1.27;;;17.60;99.90;;;;;;5084865;28;20389;-89
2022/04/22 07:23:17;;;;;;;8.15;2.00;;;17.50;99.90;;;;;;5087434;28;20387;-86
2022/04/22 07:25:46;;;;;;;8.23;1.83;;;17.50;99.90;;;;;;5087410;28;21180;-84
2022/04/22 07:28:14;;;;;;;6.38;1.63;;;17.30;99.90;;;;;;5083377;28;20435;-87
2022/04/22 07:30:46;;;;;;;10.68;1.85;;;17.20;99.90;;;;;;5068445;28;20402;-84
2022/04/22 07:33:13;;;;;;;10.30;1.58;;;17.10;99.90;;;;;;5066982;28;20402;-83
2022/04/22 07:35:41;;;;;;;6.90;1.60;;;17.00;99.90;;;;;;5071540;28;20386;-86
2022/04/22 07:38:10;;;;;;;8.10;1.45;;;17.00;99.90;;;;;;5073502;28;20390;-87
2022/04/22 07:40:40;;;;;;;5.68;1.40;;;16.80;99.90;;;;;;5078458;28;20391;-89
2022/04/22 07:48:42;;;;;;;9.85;2.28;;;16.90;99.90;;;;;;5071538;28;20388;-86
2022/04/22 07:51:10;;;;;;;9.57;2.03;;;16.80;99.90;;;;;;5068451;28;20385;-90
2022/04/22 07:53:37;;;;;;;6.90;2.20;;;16.80;99.90;;;;;;5069716;28;20394;-87
2022/04/22 07:56:05;;;;;;;8.68;2.20;;;16.80;99.90;;;;;;5087366;28;20372;-84
2022/04/22 07:58:32;;;;;;;8.00;2.50;;;16.90;99.90;;;;;;5086963;28;20387;-87
2022/04/22 08:01:00;;;;;;;9.70;2.80;;;16.80;99.90;;;;;;5083388;28;20384;-88
2022/04/22 08:03:27;;;;;;;7.97;2.03;;;16.80;99.90;;;;;;5084261;28;20393;-93
2022/04/22 08:05:54;;;;;;;6.75;1.52;;;16.80;99.90;;;;;;5102718;28;20555;-85
2022/04/22 08:08:21;;;;;;;7.63;1.95;;;16.80;99.90;;;;;;5084075;28;20484;-83
2022/04/22 08:10:48;;;;;;;6.32;1.80;;;16.80;99.90;;;;;;5086773;28;20414;-89
2022/04/22 08:13:15;;;;;;;6.13;2.55;;;16.80;99.90;;;;;;5086942;28;20388;-86
2022/04/22 08:15:42;;;;;;;5.10;1.75;;;16.80;99.90;;;;;;5084135;28;20384;-85
2022/04/22 08:18:10;;;;;;;8.48;4.55;;;16.70;99.90;;;;;;5066092;28;20465;-88
2022/04/22 08:20:37;;;;;;;10.02;4.30;;;16.60;99.90;;;;;;5066757;28;20370;-84
2022/04/22 08:23:05;;;;;;;6.25;4.15;;;16.60;99.90;;;;;;5071685;28;20378;-85
2022/04/22 08:25:32;;;;;;;9.32;4.65;;;16.60;99.90;;;;;;5083053;28;20398;-84
2022/04/22 08:27:59;;;;;;;7.75;2.10;;;16.50;99.90;;;;;;5068415;28;20407;-85
2022/04/22 08:30:26;;;;;;;4.03;1.13;;;16.40;99.90;;;;;;5069169;28;20386;-88
2022/04/22 08:32:53;;;;;;;4.72;1.40;;;16.40;99.90;;;;;;5066292;28;20818;-82
2022/04/22 08:35:20;;;;;;;4.90;1.52;;;16.30;99.90;;;;;;5085422;28;20433;-84
2022/04/22 08:37:48;;;;;;;7.78;1.90;;;16.30;99.90;;;;;;5086259;28;20392;-85
2022/04/22 08:40:15;;;;;;;4.43;1.70;;;16.20;99.90;;;;;;5084836;28;20449;-82
2022/04/22 08:42:44;;;;;;;4.93;1.58;;;16.20;99.90;;;;;;5074917;28;20392;-85
2022/04/22 08:45:11;;;;;;;5.38;1.50;;;16.20;99.90;;;;;;5069916;28;20410;-81
2022/04/22 08:50:30;;;;;;;6.20;1.90;;;16.10;99.90;;;;;;5068625;28;20387;-82
2022/04/22 08:53:08;;;;;;;7.95;4.20;;;16.10;99.90;;;;;;5067615;28;20394;-85
2022/04/22 08:55:36;;;;;;;8.98;4.10;;;16.00;99.90;;;;;;5066381;28;20374;-86
2022/04/22 08:58:05;;;;;;;8.68;4.20;;;16.00;99.90;;;;;;5070883;28;20751;-82
2022/04/22 09:00:36;;;;;;;10.15;4.03;;;16.00;99.90;;;;;;5087471;28;20391;-83
2022/04/22 09:03:03;;;;;;;13.52;7.03;;;16.00;99.90;;;;;;5073927;28;20392;-82
2022/04/22 09:05:34;;;;;;;17.35;11.35;;;15.90;99.90;;;;;;5071163;28;20883;-82
2022/04/22 09:08:02;;;;;;;19.33;13.03;;;15.90;99.90;;;;;;5070946;28;20374;-82
2022/04/22 09:10:30;;;;;;;14.17;9.73;;;16.00;99.90;;;;;;5080067;28;20479;-81
2022/04/22 09:12:57;;;;;;;16.73;10.88;;;16.00;99.90;;;;;;5081237;28;20400;-84
2022/04/22 09:15:27;;;;;;;12.23;7.05;;;16.10;99.90;;;;;;5083607;28;20774;-86
2022/04/22 09:17:57;;;;;;;10.90;7.63;;;16.10;99.90;;;;;;5091740;28;20376;-82
2022/04/22 09:20:30;;;;;;;10.30;6.68;;;16.20;99.90;;;;;;5086245;28;20427;-86
2022/04/22 09:22:57;;;;;;;12.10;4.90;;;16.20;99.90;;;;;;5070981;28;20481;-86
2022/04/22 09:25:25;;;;;;;8.75;3.13;;;16.10;99.90;;;;;;5089785;28;20797;-82
2022/04/22 09:27:52;;;;;;;5.20;1.50;;;16.10;99.90;;;;;;5073360;28;20419;-83
2022/04/22 09:30:19;;;;;;;7.35;2.10;;;16.10;99.90;;;;;;5051401;28;20783;-82
2022/04/22 09:32:46;;;;;;;6.40;2.10;;;16.00;99.90;;;;;;5069217;28;20423;-83
2022/04/22 09:35:20;;;;;;;5.75;1.60;;;16.00;99.90;;;;;;5072956;28;20397;-84
2022/04/22 09:43:39;;;;;;;5.28;1.35;;;15.90;99.90;;;;;;5076011;28;20383;-84
2022/04/22 09:46:06;;;;;;;6.07;2.00;;;15.90;99.90;;;;;;5081866;28;20884;-84
2022/04/22 09:48:47;;;;;;;3.80;1.40;;;15.90;99.90;;;;;;5069069;28;20366;-86
2022/04/22 09:51:24;;;;;;;4.45;1.67;;;15.90;99.90;;;;;;5072318;28;20386;-85
2022/04/22 09:54:20;;;;;;;4.25;1.50;;;15.90;99.90;;;;;;5083046;28;20760;-86
2022/04/22 09:56:57;;;;;;;3.78;1.73;;;16.00;99.90;;;;;;5069233;28;20884;-86
2022/04/22 09:59:29;;;;;;;5.03;1.80;;;16.00;99.90;;;;;;5081181;28;20748;-87
2022/04/22 10:01:56;;;;;;;5.88;1.90;;;17.30;99.90;;;;;;5078624;28;20389;-86
2022/04/22 10:04:23;;;;;;;3.67;1.37;;;15.90;99.90;;;;;;5074291;28;20444;-88
2022/04/22 10:06:51;;;;;;;3.95;1.23;;;15.90;99.90;;;;;;5077875;28;20882;-88
2022/04/22 10:09:20;;;;;;;4.07;1.30;;;15.90;99.90;;;;;;5071947;28;20483;-85
2022/04/22 10:11:52;;;;;;;3.38;1.20;;;15.90;99.90;;;;;;5084417;28;20395;-84
2022/04/22 10:14:39;;;;;;;2.70;1.03;;;15.90;99.90;;;;;;5078963;28;20952;-85
2022/04/22 10:17:07;;;;;;;5.28;2.58;;;15.80;99.90;;;;;;5071243;28;20424;-85
2022/04/22 10:19:35;;;;;;;3.53;1.10;;;15.80;99.90;;;;;;5059982;28;20859;-87
2022/04/22 10:22:03;;;;;;;3.72;1.10;;;15.80;99.90;;;;;;5082515;28;20452;-86
2022/04/22 10:24:33;;;;;;;3.35;1.10;;;15.80;99.90;;;;;;5077427;28;20852;-85
2022/04/22 10:27:03;;;;;;;2.63;1.17;;;15.80;99.90;;;;;;5088557;28;20372;-84
2022/04/22 10:29:31;;;;;;;3.28;0.98;;;15.80;99.90;;;;;;5081330;28;20729;-85
2022/04/22 10:31:59;;;;;;;3.47;2.25;;;15.80;99.90;;;;;;5087799;28;20404;-83
2022/04/22 10:34:44;;;;;;;5.30;3.15;;;15.80;99.90;;;;;;5082849;28;20500;-86
2022/04/22 10:37:25;;;;;;;4.47;1.90;;;15.80;99.90;;;;;;5073569;28;20378;-82
2022/04/22 10:39:54;;;;;;;4.75;1.50;;;15.70;99.90;;;;;;5085716;28;20384;-83
2022/04/22 10:42:33;;;;;;;5.75;1.80;;;15.70;99.90;;;;;;5067789;28;20378;-82
2022/04/22 10:47:55;;;;;;;5.85;1.80;;;15.70;99.90;;;;;;5068247;28;20361;-84
2022/04/22 10:50:42;;;;;;;3.42;1.48;;;15.60;99.90;;;;;;5073173;28;20445;-82
2022/04/22 10:53:23;;;;;;;6.75;3.30;;;15.60;99.90;;;;;;5088202;28;20441;-84
2022/04/22 10:55:51;;;;;;;9.00;7.47;;;15.50;99.90;;;;;;5073140;28;20420;-83
2022/04/22 10:58:21;;;;;;;14.60;11.98;;;15.60;99.90;;;;;;5070533;28;20946;-83
2022/04/22 11:00:53;;;;;;;11.18;9.95;;;15.50;99.90;;;;;;5079487;28;20866;-82
2022/04/22 11:03:31;;;;;;;12.85;8.57;;;15.60;99.90;;;;;;5067659;28;20404;-82
2022/04/22 11:06:00;;;;;;;10.50;6.57;;;15.50;99.90;;;;;;5067614;28;20362;-82
2022/04/22 11:08:37;;;;;;;7.85;3.88;;;15.50;99.90;;;;;;5067619;28;20436;-83
2022/04/22 11:11:11;;;;;;;10.48;6.70;;;15.50;99.90;;;;;;5067492;28;20394;-83
2022/04/22 11:13:40;;;;;;;12.43;6.60;;;15.40;99.90;;;;;;5067514;28;20481;-83
2022/04/22 11:16:11;;;;;;;17.40;10.73;;;15.40;99.90;;;;;;5085209;28;20384;-83
2022/04/22 11:18:40;;;;;;;15.38;12.00;;;15.50;99.90;;;;;;5079497;28;20391;-83
2022/04/22 11:21:32;;;;;;;13.13;9.98;;;15.50;99.90;;;;;;5071013;28;20380;-84
2022/04/22 11:24:14;;;;;;;11.57;8.70;;;15.50;99.90;;;;;;5087080;28;20756;-84
2022/04/22 11:26:41;;;;;;;8.32;5.57;;;15.30;99.90;;;;;;5068484;28;20384;-85
2022/04/22 11:29:10;;;;;;;7.68;4.35;;;15.50;99.90;;;;;;5086765;28;20392;-85
2022/04/22 11:31:38;;;;;;;10.13;7.40;;;15.50;99.90;;;;;;5087411;28;20388;-85
2022/04/22 11:34:11;;;;;;;12.45;9.60;;;15.50;99.90;;;;;;5087361;28;20416;-84
2022/04/22 11:36:46;;;;;;;9.95;4.80;;;15.50;99.90;;;;;;5069197;28;20390;-84
2022/04/22 11:39:18;;;;;;;12.00;5.13;;;15.50;99.90;;;;;;5088271;28;20452;-85
2022/04/22 11:41:57;;;;;;;14.50;5.57;;;15.50;99.90;;;;;;5066749;28;20417;-83
2022/04/22 11:44:25;;;;;;;11.00;4.10;;;15.40;99.90;;;;;;5067181;28;20869;-85
2022/04/22 11:46:52;;;;;;;11.10;3.47;;;15.40;99.90;;;;;;5074405;28;20514;-85
2022/04/22 11:49:21;;;;;;;10.55;2.97;;;15.40;99.90;;;;;;5087298;28;20381;-84
2022/04/22 11:51:57;;;;;;;8.83;3.33;;;15.50;99.90;;;;;;5068581;28;20737;-84
2022/04/22 11:54:27;;;;;;;6.78;3.65;;;15.40;99.90;;;;;;5081934;28;20410;-83
2022/04/22 11:56:55;;;;;;;7.88;4.40;;;15.30;99.90;;;;;;5066541;28;20366;-84
2022/04/22 11:59:25;;;;;;;7.10;3.27;;;15.30;99.90;;;;;;5070663;28;20392;-85
2022/04/22 12:05:32;;;;;;;8.00;2.58;;;15.20;99.90;;;;;;5086431;28;20751;-85
2022/04/22 12:10:15;;;;;;;5.05;1.58;;;15.20;99.90;;;;;;5087929;28;20372;-84
2022/04/22 12:12:50;;;;;;;5.55;1.67;;;15.20;99.90;;;;;;5068352;28;20404;-83
2022/04/22 12:15:20;;;;;;;5.68;2.20;;;15.20;99.90;;;;;;5076168;28;20408;-84
2022/04/22 12:17:47;;;;;;;5.75;2.30;;;15.20;99.90;;;;;;5066987;28;20424;-84
2022/04/22 12:20:15;;;;;;;6.57;2.35;;;15.10;99.90;;;;;;5080016;28;20407;-83
2022/04/22 12:22:42;;;;;;;4.93;2.25;;;15.10;99.90;;;;;;5087103;28;20705;-84
2022/04/22 12:25:19;;;;;;;6.17;2.30;;;15.10;99.90;;;;;;5086421;28;20462;-83
2022/04/22 12:28:09;;;;;;;5.53;1.83;;;15.10;99.90;;;;;;5086626;28;20380;-83
2022/04/22 12:30:38;;;;;;;3.13;1.80;;;15.10;99.90;;;;;;5076482;28;20431;-82
2022/04/22 12:33:06;;;;;;;5.95;2.30;;;15.10;99.90;;;;;;5070199;28;20413;-83
2022/04/22 12:35:34;;;;;;;5.32;2.25;;;15.10;99.90;;;;;;5070462;28;20398;-83
2022/04/22 12:38:06;;;;;;;7.75;2.45;;;15.10;99.90;;;;;;5070425;28;20378;-83
2022/04/22 12:40:49;;;;;;;5.85;2.60;;;15.10;99.90;;;;;;5070509;28;20730;-83
2022/04/22 12:43:28;;;;;;;5.53;2.70;;;15.10;99.90;;;;;;5070689;28;20431;-83
2022/04/22 12:52:16;;;;;;;8.70;2.85;;;15.00;99.90;;;;;;5088771;28;20387;-82
2022/04/22 12:54:48;;;;;;;8.40;3.10;;;15.00;99.90;;;;;;5089614;28;20403;-82
2022/04/22 12:57:27;;;;;;;8.27;3.10;;;15.00;99.90;;;;;;5089804;28;20411;-83
2022/04/22 12:59:56;;;;;;;6.38;3.40;;;15.00;99.90;;;;;;5090638;28;20375;-82
2022/04/22 13:02:32;;;;;;;4.97;3.50;;;15.00;99.90;;;;;;5072564;28;20438;-83
2022/04/22 13:05:06;;;;;;;6.90;3.60;;;15.00;99.90;;;;;;5089908;28;20790;-82
2022/04/22 13:07:52;;;;;;;6.25;3.70;;;15.00;99.90;;;;;;5088160;28;20793;-83
2022/04/22 13:10:22;;;;;;;7.90;3.90;;;14.90;99.90;;;;;;5071663;28;20839;-83
2022/04/22 13:12:50;;;;;;;9.35;4.22;;;14.90;99.90;;;;;;5090047;28;20387;-82
2022/04/22 13:15:21;;;;;;;8.30;4.40;;;14.90;99.90;;;;;;5090105;28;20377;-83
2022/04/22 13:17:50;;;;;;;7.88;4.63;;;14.90;99.90;;;;;;5076755;28;20403;-83
2022/04/22 13:20:20;;;;;;;8.23;4.70;;;14.90;99.90;;;;;;5069757;28;20439;-83
2022/04/22 13:22:48;;;;;;;9.10;5.00;;;14.90;99.90;;;;;;5069260;28;20935;-83
2022/04/22 13:25:17;;;;;;;7.55;5.30;;;14.90;99.90;;;;;;5086549;28;20430;-83
2022/04/22 13:27:44;;;;;;;9.68;5.85;;;14.90;99.90;;;;;;5079443;28;20478;-83
2022/04/22 13:30:15;;;;;;;8.65;5.82;;;14.90;99.90;;;;;;5086272;28;20437;-83
2022/04/22 13:32:42;;;;;;;8.07;4.60;;;14.90;99.90;;;;;;5075470;28;20804;-83
2022/04/22 13:35:13;;;;;;;8.60;4.40;;;14.90;99.90;;;;;;5068133;28;20406;-83
2022/04/22 13:37:40;;;;;;;7.63;4.25;;;14.90;99.90;;;;;;5077413;28;20458;-83
2022/04/22 13:40:07;;;;;;;7.72;3.97;;;14.80;99.90;;;;;;5089585;28;20933;-83
2022/04/22 13:42:35;;;;;;;8.38;4.10;;;14.70;99.90;;;;;;5089141;28;20404;-83
2022/04/22 13:53:17;;;;;;;7.95;3.70;;;14.60;99.90;;;;;;5069277;28;20389;-83
2022/04/22 13:55:54;;;;;;;7.45;3.40;;;14.50;99.90;;;;;;5072476;28;20403;-84
2022/04/22 13:58:21;;;;;;;9.37;3.47;;;14.50;99.90;;;;;;5071971;28;20402;-83
2022/04/22 14:00:48;;;;;;;10.13;3.40;;;14.50;99.90;;;;;;5089176;28;20811;-83
2022/04/22 14:03:19;;;;;;;9.18;3.03;;;14.50;99.90;;;;;;5088977;28;20369;-83
2022/04/22 14:06:00;;;;;;;8.63;3.03;;;14.50;99.90;;;;;;5042450;28;20408;-83
2022/04/22 14:08:27;;;;;;;7.65;3.30;;;14.50;99.90;;;;;;5061367;28;20392;-83
2022/04/22 14:10:55;;;;;;;7.72;3.30;;;14.50;99.90;;;;;;5070511;28;20392;-82
2022/04/22 14:13:22;;;;;;;8.38;3.10;;;14.60;99.90;;;;;;5088916;28;20392;-82